createdAt,value
2018-01-13T00:00:28.242Z,87.23
2018-01-13T00:03:02.578Z,82.40
2018-01-13T00:05:36.148Z,71.60
2018-01-13T00:08:10.777Z,82.80
2018-01-13T00:10:44.837Z,80.00
2018-01-13T00:13:18.887Z,78.70
2018-01-13T00:15:52.674Z,91.60
2018-01-13T00:18:27.199Z,86.33
2018-01-13T00:21:01.924Z,97.60
2018-01-13T00:23:36.615Z,81.10
2018-01-13T00:26:10.591Z,83.97
2018-01-13T00:28:44.947Z,80.77
2018-01-13T00:31:19.090Z,88.00
2018-01-13T00:33:53.388Z,79.17
2018-01-13T00:36:27.463Z,85.10
2018-01-13T00:39:02.048Z,88.37
2018-01-13T00:41:35.987Z,78.63
2018-01-13T00:44:10.451Z,80.70
2018-01-13T00:46:44.633Z,75.07
2018-01-13T00:49:18.639Z,86.10
2018-01-13T00:51:52.530Z,53.93
2018-01-13T00:54:27.041Z,85.10
2018-01-13T00:57:01.052Z,78.37
2018-01-13T00:59:34.921Z,81.43
2018-01-13T01:02:08.680Z,73.47
2018-01-13T01:04:42.435Z,74.53
2018-01-13T01:07:16.828Z,77.07
2018-01-13T01:09:51.509Z,79.47
2018-01-13T01:12:26.872Z,92.00
2018-01-13T01:15:02.282Z,73.63
2018-01-13T01:17:37.130Z,84.70
2018-01-13T01:20:12.097Z,83.97
2018-01-13T01:22:46.529Z,86.00
2018-01-13T01:25:22.416Z,70.70
2018-01-13T01:27:56.861Z,83.27
2018-01-13T01:30:30.838Z,79.63
2018-01-13T01:33:05.153Z,55.93
2018-01-13T01:35:39.472Z,68.23
2018-01-13T01:38:13.313Z,62.87
2018-01-13T01:40:48.087Z,73.53
2018-01-13T01:43:23.282Z,86.80
2018-01-13T01:45:57.169Z,82.23
2018-01-13T01:48:31.526Z,71.87
2018-01-13T01:51:05.944Z,71.17
2018-01-13T01:53:39.603Z,85.10
2018-01-13T01:56:13.865Z,92.20
2018-01-13T01:58:47.682Z,87.43
2018-01-13T02:01:22.264Z,88.90
2018-01-13T02:03:57.462Z,86.13
2018-01-13T02:06:31.533Z,74.00
2018-01-13T02:09:05.924Z,78.97
2018-01-13T02:11:39.863Z,79.67
2018-01-13T02:14:13.532Z,75.60
2018-01-13T02:16:47.323Z,87.77
2018-01-13T02:19:21.808Z,70.63
2018-01-13T02:21:56.489Z,87.97
2018-01-13T02:24:31.420Z,90.60
2018-01-13T02:27:06.677Z,73.97
2018-01-13T02:29:40.608Z,66.23
2018-01-13T02:32:15.203Z,86.37
2018-01-13T02:34:49.226Z,71.30
2018-01-13T02:37:23.134Z,85.70
2018-01-13T02:39:57.214Z,84.40
2018-01-13T02:42:31.004Z,86.70
2018-01-13T02:45:04.777Z,105.97
2018-01-13T02:47:39.241Z,78.90
2018-01-13T02:50:12.869Z,77.70
2018-01-13T02:52:47.159Z,78.50
2018-01-13T02:55:21.405Z,84.90
2018-01-13T02:57:55.900Z,72.17
2018-01-13T03:00:30.007Z,80.50
2018-01-13T03:03:04.707Z,78.00
2018-01-13T03:05:38.783Z,89.47
2018-01-13T03:08:12.473Z,83.43
2018-01-13T03:10:46.726Z,79.57
2018-01-13T03:13:21.309Z,88.63
2018-01-13T03:15:55.383Z,83.97
2018-01-13T03:18:29.089Z,63.57
2018-01-13T03:21:03.020Z,93.53
2018-01-13T03:23:37.304Z,66.47
2018-01-13T03:26:11.748Z,95.27
2018-01-13T03:28:45.844Z,80.63
2018-01-13T03:31:20.045Z,76.87
2018-01-13T03:33:54.191Z,80.67
2018-01-13T03:36:28.440Z,75.37
2018-01-13T03:39:02.184Z,78.80
2018-01-13T03:41:35.994Z,60.07
2018-01-13T03:44:09.691Z,80.30
2018-01-13T03:46:44.260Z,74.03
2018-01-13T03:49:19.596Z,70.80
2018-01-13T03:51:54.401Z,75.80
2018-01-13T03:54:28.573Z,74.00
2018-01-13T03:57:02.786Z,84.93
2018-01-13T03:59:37.285Z,87.07
2018-01-13T04:02:12.001Z,80.47
2018-01-13T04:04:46.432Z,94.43
2018-01-13T04:07:20.368Z,71.57
2018-01-13T04:09:55.342Z,96.27
2018-01-13T04:12:30.409Z,98.23
2018-01-13T04:15:05.202Z,79.23
2018-01-13T04:17:40.319Z,77.27
2018-01-13T04:20:14.480Z,68.70
2018-01-13T04:22:49.341Z,81.80
2018-01-13T04:25:23.821Z,80.77
2018-01-13T04:27:59.381Z,80.03
2018-01-13T04:30:34.449Z,84.33
2018-01-13T04:33:08.545Z,79.43
2018-01-13T04:35:42.384Z,83.23
2018-01-13T04:38:16.285Z,82.77
2018-01-13T04:40:50.200Z,91.27
2018-01-13T04:43:24.463Z,76.00
2018-01-13T04:45:58.319Z,71.77
2018-01-13T04:48:32.463Z,98.07
2018-01-13T04:51:07.688Z,88.57
2018-01-13T04:53:41.869Z,81.17
2018-01-13T04:56:16.405Z,96.20
2018-01-13T04:58:50.486Z,91.10
2018-01-13T05:01:24.436Z,84.43
2018-01-13T05:03:59.191Z,102.73
2018-01-13T05:06:33.180Z,77.03
2018-01-13T05:09:06.905Z,91.07
2018-01-13T05:11:41.956Z,88.07
2018-01-13T05:14:16.683Z,80.90
2018-01-13T05:16:51.164Z,94.10
2018-01-13T05:19:25.612Z,76.33
2018-01-13T05:21:59.974Z,81.63
2018-01-13T05:24:33.752Z,68.20
2018-01-13T05:27:08.366Z,91.57
2018-01-13T05:29:43.580Z,95.77
2018-01-13T05:32:17.627Z,92.77
2018-01-13T05:34:51.752Z,76.13
2018-01-13T05:37:25.548Z,75.17
2018-01-13T05:40:00.079Z,111.30
2018-01-13T05:42:34.511Z,83.23
2018-01-13T05:45:08.292Z,82.30
2018-01-13T05:47:43.341Z,90.27
2018-01-13T05:50:17.800Z,97.77
2018-01-13T05:52:51.927Z,93.97
2018-01-13T05:55:26.380Z,94.33
2018-01-13T05:58:01.285Z,101.43
2018-01-13T06:00:35.026Z,93.63
2018-01-13T06:03:09.028Z,112.13
2018-01-13T06:05:43.357Z,75.80
2018-01-13T06:08:17.133Z,100.30
2018-01-13T06:10:52.524Z,100.37
2018-01-13T06:13:27.133Z,81.60
2018-01-13T06:16:00.973Z,113.50
2018-01-13T06:18:34.852Z,94.30
2018-01-13T06:21:10.300Z,93.00
2018-01-13T06:23:44.038Z,116.80
2018-01-13T06:26:17.944Z,102.43
2018-01-13T06:28:53.448Z,101.73
2018-01-13T06:31:29.205Z,88.50
2018-01-13T06:34:04.208Z,100.63
2018-01-13T06:36:38.601Z,85.17
2018-01-13T06:39:13.230Z,82.03
2018-01-13T06:41:49.104Z,85.30
2018-01-13T06:44:24.675Z,92.33
2018-01-13T06:46:59.297Z,81.07
2018-01-13T06:49:34.400Z,78.87
2018-01-13T06:52:08.445Z,73.20
2018-01-13T06:54:42.362Z,66.97
2018-01-13T06:57:16.511Z,72.97
2018-01-13T06:59:51.238Z,63.57
2018-01-13T07:02:26.426Z,71.63
2018-01-13T07:05:01.696Z,72.83
2018-01-13T07:07:36.098Z,66.00
2018-01-13T07:10:10.625Z,81.97
2018-01-13T07:12:45.300Z,46.70
2018-01-13T07:15:19.831Z,70.87
2018-01-13T07:17:54.005Z,82.57
2018-01-13T07:20:29.103Z,78.53
2018-01-13T07:23:02.704Z,57.47
2018-01-13T07:25:38.057Z,93.43
2018-01-13T07:28:12.131Z,91.50
2018-01-13T07:30:47.615Z,70.27
2018-01-13T07:33:22.912Z,105.67
2018-01-13T07:35:56.888Z,89.50
2018-01-13T07:38:31.483Z,75.93
2018-01-13T07:41:06.528Z,68.07
2018-01-13T07:43:40.453Z,67.60
2018-01-13T07:46:14.212Z,84.63
2018-01-13T07:48:48.485Z,96.93
2018-01-13T07:51:22.264Z,72.27
2018-01-13T07:53:56.335Z,77.17
2018-01-13T07:56:30.016Z,75.60
2018-01-13T07:59:03.800Z,82.83
2018-01-13T08:01:39.014Z,75.20
2018-01-13T08:04:13.092Z,73.20
2018-01-13T08:06:47.009Z,108.80
2018-01-13T08:09:20.645Z,68.90
2018-01-13T08:11:54.511Z,69.23
2018-01-13T08:14:28.616Z,68.33
2018-01-13T08:17:02.677Z,66.87
2018-01-13T08:19:37.065Z,71.90
2018-01-13T08:22:11.691Z,89.93
2018-01-13T08:24:45.869Z,76.37
2018-01-13T08:27:20.418Z,77.00
2018-01-13T08:29:54.697Z,83.40
2018-01-13T08:32:28.466Z,79.70
2018-01-13T08:35:02.136Z,77.93
2018-01-13T08:37:36.704Z,71.90
2018-01-13T08:40:10.816Z,71.87
2018-01-13T08:42:44.572Z,65.93
2018-01-13T08:45:18.258Z,79.10
2018-01-13T08:47:52.293Z,69.87
2018-01-13T08:50:26.865Z,57.20
2018-01-13T08:53:00.806Z,78.07
2018-01-13T08:55:34.840Z,75.53
2018-01-13T08:58:08.484Z,84.10
2018-01-13T09:00:42.261Z,73.63
2018-01-13T09:03:16.234Z,71.90
2018-01-13T09:05:50.194Z,73.27
2018-01-13T09:08:24.709Z,65.43
2018-01-13T09:10:58.720Z,67.43
2018-01-13T09:13:32.411Z,79.33
2018-01-13T09:16:06.129Z,53.67
2018-01-13T09:18:39.816Z,53.47
2018-01-13T09:21:13.418Z,70.97
2018-01-13T09:23:47.858Z,59.07
2018-01-13T09:26:22.804Z,65.97
2018-01-13T09:28:56.863Z,55.07
2018-01-13T09:31:30.746Z,60.73
2018-01-13T09:34:04.752Z,61.80
2018-01-13T09:36:38.499Z,49.97
2018-01-13T09:39:12.936Z,74.03
2018-01-13T09:41:47.649Z,73.07
2018-01-13T09:44:22.063Z,73.80
2018-01-13T09:46:56.381Z,64.57
2018-01-13T09:49:31.136Z,86.50
2018-01-13T09:52:04.970Z,93.93
2018-01-13T09:54:39.341Z,79.77
2018-01-13T09:57:14.223Z,78.10
2018-01-13T09:59:48.780Z,71.97
2018-01-13T10:02:23.532Z,69.67
2018-01-13T10:04:57.361Z,73.77
2018-01-13T10:07:31.023Z,83.50
2018-01-13T10:10:04.954Z,74.93
2018-01-13T10:12:38.760Z,64.30
2018-01-13T10:15:12.720Z,61.30
2018-01-13T10:17:47.211Z,83.97
2018-01-13T10:20:21.134Z,83.10
2018-01-13T10:22:56.411Z,77.97
2018-01-13T10:25:30.576Z,92.63
2018-01-13T10:28:04.257Z,79.17
2018-01-13T10:30:38.885Z,86.77
2018-01-13T10:33:12.938Z,83.93
2018-01-13T10:35:48.671Z,76.07
2018-01-13T10:38:23.158Z,68.43
2018-01-13T10:40:57.459Z,93.47
2018-01-13T10:43:32.084Z,76.10
2018-01-13T10:46:05.763Z,91.10
2018-01-13T10:48:39.609Z,87.77
2018-01-13T10:51:14.305Z,90.67
2018-01-13T10:53:49.921Z,89.50
2018-01-13T10:56:24.313Z,65.57
2018-01-13T10:58:59.577Z,82.13
2018-01-13T11:01:33.814Z,95.80
2018-01-13T11:04:07.529Z,95.60
2018-01-13T11:06:41.533Z,80.47
2018-01-13T11:09:16.331Z,97.60
2018-01-13T11:11:50.747Z,89.20
2018-01-13T11:14:25.506Z,77.30
2018-01-13T11:16:59.490Z,91.83
2018-01-13T11:19:34.999Z,92.43
2018-01-13T11:22:09.085Z,80.60
2018-01-13T11:24:43.052Z,105.03
2018-01-13T11:27:17.762Z,84.90
2018-01-13T11:29:51.602Z,105.50
2018-01-13T11:32:25.337Z,117.50
2018-01-13T11:35:00.356Z,104.70
2018-01-13T11:37:34.973Z,101.67
2018-01-13T11:40:09.486Z,116.70
2018-01-13T11:42:43.353Z,136.50
2018-01-13T11:45:18.849Z,115.93
2018-01-13T11:47:52.857Z,124.10
2018-01-13T11:50:26.798Z,119.77
2018-01-13T11:53:00.584Z,124.73
2018-01-13T11:55:34.262Z,121.87
2018-01-13T11:58:08.049Z,111.87
2018-01-13T12:00:41.875Z,120.73
2018-01-13T12:03:16.366Z,118.80
2018-01-13T12:05:50.749Z,128.57
2018-01-13T12:08:25.574Z,127.77
2018-01-13T12:10:59.756Z,121.50
2018-01-13T12:13:34.967Z,97.87
2018-01-13T12:16:09.117Z,125.23
2018-01-13T12:18:43.784Z,117.60
2018-01-13T12:21:17.664Z,118.60
2018-01-13T12:23:51.333Z,129.37
2018-01-13T12:26:25.149Z,120.97
2018-01-13T12:28:59.056Z,112.33
2018-01-13T12:31:32.791Z,122.13
2018-01-13T12:34:06.566Z,134.03
2018-01-13T12:36:40.404Z,115.93
2018-01-13T12:39:15.016Z,101.43
2018-01-13T12:41:49.553Z,116.33
2018-01-13T12:44:23.683Z,102.97
2018-01-13T12:46:58.204Z,128.67
2018-01-13T12:49:32.248Z,124.73
2018-01-13T12:52:05.896Z,117.93
2018-01-13T12:54:39.869Z,115.93
2018-01-13T12:57:13.815Z,85.13
2018-01-13T12:59:47.437Z,121.67
2018-01-13T13:02:22.063Z,111.77
2018-01-13T13:04:56.524Z,123.30
2018-01-13T13:07:30.212Z,119.93
2018-01-13T13:10:03.976Z,108.17
2018-01-13T13:12:37.721Z,94.37
2018-01-13T13:15:11.713Z,101.57
2018-01-13T13:17:46.625Z,84.20
2018-01-13T13:20:20.702Z,102.53
2018-01-13T13:22:54.544Z,96.90
2018-01-13T13:25:29.139Z,101.77
2018-01-13T13:28:03.352Z,76.97
2018-01-13T13:30:37.472Z,77.87
2018-01-13T13:33:11.153Z,87.17
2018-01-13T13:35:45.273Z,104.00
2018-01-13T13:38:19.456Z,101.63
2018-01-13T13:40:53.392Z,77.23
2018-01-13T13:43:27.215Z,88.73
2018-01-13T13:46:01.771Z,88.67
2018-01-13T13:48:35.736Z,92.73
2018-01-13T13:51:10.327Z,102.20
2018-01-13T13:53:44.271Z,82.20
2018-01-13T13:56:18.733Z,76.13
2018-01-13T13:58:52.724Z,76.73
2018-01-13T14:01:28.815Z,73.47
2018-01-13T14:04:01.301Z,66.13
2018-01-13T14:06:35.106Z,71.63
2018-01-13T14:09:09.853Z,57.20
2018-01-13T14:11:43.748Z,59.20
2018-01-13T14:14:18.348Z,68.10
2018-01-13T14:16:52.735Z,53.37
2018-01-13T14:19:26.402Z,55.97
2018-01-13T14:22:00.804Z,49.13
2018-01-13T14:24:34.985Z,54.13
2018-01-13T14:27:09.439Z,63.27
2018-01-13T14:29:43.547Z,92.83
2018-01-13T14:32:18.094Z,70.40
2018-01-13T14:34:51.980Z,78.03
2018-01-13T14:37:25.748Z,79.23
2018-01-13T14:40:00.130Z,86.23
2018-01-13T14:42:34.839Z,77.90
2018-01-13T14:45:08.840Z,71.87
2018-01-13T14:47:42.480Z,68.93
2018-01-13T14:50:17.196Z,81.70
2018-01-13T14:52:51.172Z,74.70
2018-01-13T14:55:25.732Z,75.50
2018-01-13T14:57:59.581Z,89.63
2018-01-13T15:00:33.349Z,63.70
2018-01-13T15:03:08.640Z,72.23
2018-01-13T15:05:43.721Z,86.77
2018-01-13T15:08:17.670Z,100.87
2018-01-13T15:10:51.245Z,87.47
2018-01-13T15:13:25.726Z,93.90
2018-01-13T15:15:59.504Z,88.53
2018-01-13T15:18:33.443Z,79.83
2018-01-13T15:21:07.901Z,82.33
2018-01-13T15:23:42.077Z,79.20
2018-01-13T15:26:15.889Z,59.20
2018-01-13T15:28:49.662Z,64.90
2018-01-13T15:31:23.328Z,59.37
2018-01-13T15:33:57.110Z,53.23
2018-01-13T15:36:31.697Z,55.87
2018-01-13T15:39:06.421Z,51.70
2018-01-13T15:41:40.540Z,41.63
2018-01-13T15:44:14.522Z,55.67
2018-01-13T15:46:48.597Z,52.83
2018-01-13T15:49:22.586Z,47.80
2018-01-13T15:51:56.597Z,38.60
2018-01-13T15:54:31.114Z,51.80
2018-01-13T15:57:05.041Z,43.27
2018-01-13T15:59:38.760Z,43.47
2018-01-13T16:02:12.558Z,43.47
2018-01-13T16:04:47.108Z,39.57
2018-01-13T16:07:21.537Z,39.40
2018-01-13T16:09:56.099Z,36.90
2018-01-13T16:12:29.796Z,41.30
2018-01-13T16:15:03.741Z,35.03
2018-01-13T16:17:39.033Z,34.87
2018-01-13T16:20:13.121Z,25.13
2018-01-13T16:22:47.681Z,31.90
2018-01-13T16:25:21.724Z,43.30
2018-01-13T16:27:56.532Z,42.67
2018-01-13T16:30:30.510Z,33.30
2018-01-13T16:33:05.317Z,33.57
2018-01-13T16:35:40.066Z,37.47
2018-01-13T16:38:15.027Z,35.63
2018-01-13T16:40:49.014Z,40.87
2018-01-13T16:43:23.083Z,41.47
2018-01-13T16:45:57.104Z,37.90
2018-01-13T16:48:30.988Z,39.67
2018-01-13T16:51:04.807Z,39.40
2018-01-13T16:53:38.935Z,39.80
2018-01-13T16:56:12.883Z,38.73
2018-01-13T16:58:47.239Z,35.90
2018-01-13T17:01:20.914Z,42.80
2018-01-13T17:03:54.722Z,38.73
2018-01-13T17:06:30.030Z,39.27
2018-01-13T17:09:04.792Z,43.00
2018-01-13T17:11:38.741Z,42.20
2018-01-13T17:14:13.216Z,36.90
2018-01-13T17:16:47.030Z,41.40
2018-01-13T17:19:21.631Z,38.07
2018-01-13T17:21:55.645Z,36.70
2018-01-13T17:24:30.285Z,35.97
2018-01-13T17:27:04.320Z,40.40
2018-01-13T17:29:38.448Z,37.97
2018-01-13T17:32:13.512Z,43.80
2018-01-13T17:34:47.593Z,43.77
2018-01-13T17:37:22.148Z,34.73
2018-01-13T17:39:56.131Z,40.53
2018-01-13T17:42:30.470Z,42.00
2018-01-13T17:45:04.539Z,30.83
2018-01-13T17:47:38.913Z,40.27
2018-01-13T17:50:12.878Z,36.20
2018-01-13T17:52:46.632Z,30.43
2018-01-13T17:55:21.258Z,30.63
2018-01-13T17:57:55.544Z,30.70
2018-01-13T18:00:29.280Z,34.70
2018-01-13T18:03:03.023Z,38.43
2018-01-13T18:05:36.756Z,32.40
2018-01-13T18:08:11.618Z,29.17
2018-01-13T18:10:45.753Z,32.73
2018-01-13T18:13:19.501Z,34.63
2018-01-13T18:15:53.346Z,33.80
2018-01-13T18:18:27.216Z,42.50
2018-01-13T18:21:01.666Z,30.90
2018-01-13T18:23:37.238Z,38.90
2018-01-13T18:26:11.888Z,35.30
2018-01-13T18:28:47.401Z,30.37
2018-01-13T18:31:21.139Z,36.60
2018-01-13T18:33:56.502Z,39.23
2018-01-13T18:36:31.082Z,39.07
2018-01-13T18:39:04.873Z,33.97
2018-01-13T18:41:39.877Z,39.40
2018-01-13T18:44:13.720Z,33.00
2018-01-13T18:46:49.135Z,31.27
2018-01-13T18:49:23.101Z,32.80
2018-01-13T18:51:56.798Z,31.57
2018-01-13T18:54:31.605Z,38.40
2018-01-13T18:57:05.527Z,38.20
2018-01-13T18:59:40.136Z,29.23
2018-01-13T19:02:14.149Z,34.87
2018-01-13T19:04:48.184Z,34.33
2018-01-13T19:07:21.989Z,18.77
2018-01-13T19:09:56.552Z,29.30
2018-01-13T19:12:30.545Z,31.67
2018-01-13T19:15:04.169Z,30.97
2018-01-13T19:17:37.829Z,36.80
2018-01-13T19:20:11.768Z,32.40
2018-01-13T19:22:46.330Z,23.70
2018-01-13T19:25:21.138Z,34.63
2018-01-13T19:27:55.171Z,32.00
2018-01-13T19:30:29.622Z,29.93
2018-01-13T19:33:03.533Z,38.97
2018-01-13T19:35:37.897Z,34.67
2018-01-13T19:38:12.664Z,31.40
2018-01-13T19:40:46.883Z,35.40
2018-01-13T19:43:21.519Z,27.30
2018-01-13T19:45:55.443Z,30.70
2018-01-13T19:48:30.139Z,37.07
2018-01-13T19:51:04.958Z,32.47
2018-01-13T19:53:39.529Z,34.70
2018-01-13T19:56:14.325Z,29.17
2018-01-13T19:58:48.348Z,26.80
2018-01-13T20:01:22.205Z,30.60
2018-01-13T20:03:56.346Z,21.67
2018-01-13T20:06:29.943Z,30.47
2018-01-13T20:09:03.756Z,30.17
2018-01-13T20:11:37.660Z,27.73
2018-01-13T20:14:11.317Z,29.13
2018-01-13T20:16:45.068Z,29.03
2018-01-13T20:19:19.072Z,23.53
2018-01-13T20:21:53.736Z,30.90
2018-01-13T20:24:27.545Z,28.90
2018-01-13T20:27:01.692Z,32.03
2018-01-13T20:29:35.936Z,32.77
2018-01-13T20:32:10.454Z,33.60
2018-01-13T20:34:44.359Z,34.50
2018-01-13T20:37:19.747Z,29.93
2018-01-13T20:39:53.942Z,24.90
2018-01-13T20:42:27.877Z,27.70
2018-01-13T20:45:02.498Z,22.30
2018-01-13T20:47:37.396Z,31.07
2018-01-13T20:50:11.342Z,26.77
2018-01-13T20:52:46.644Z,28.30
2018-01-13T20:55:20.645Z,29.97
2018-01-13T20:57:55.879Z,32.73
2018-01-13T21:00:30.631Z,26.23
2018-01-13T21:03:04.680Z,26.87
2018-01-13T21:05:39.229Z,27.37
2018-01-13T21:08:13.218Z,26.93
2018-01-13T21:10:47.747Z,28.20
2018-01-13T21:13:21.756Z,29.00
2018-01-13T21:15:55.581Z,26.80
2018-01-13T21:18:29.896Z,26.60
2018-01-13T21:21:03.832Z,30.23
2018-01-13T21:23:37.540Z,22.67
2018-01-13T21:26:11.433Z,28.70
2018-01-13T21:28:45.331Z,27.50
2018-01-13T21:31:19.274Z,32.87
2018-01-13T21:33:52.952Z,27.37
2018-01-13T21:36:26.987Z,30.80
2018-01-13T21:39:00.601Z,25.40
2018-01-13T21:41:34.681Z,27.10
2018-01-13T21:44:08.411Z,20.17
2018-01-13T21:46:42.077Z,25.73
2018-01-13T21:49:16.603Z,33.27
2018-01-13T21:51:50.557Z,26.20
2018-01-13T21:54:24.269Z,30.27
2018-01-13T21:56:58.042Z,28.00
2018-01-13T21:59:32.470Z,30.90
2018-01-13T22:02:06.638Z,31.87
2018-01-13T22:04:40.664Z,26.40
2018-01-13T22:07:15.251Z,27.67
2018-01-13T22:09:50.039Z,25.33
2018-01-13T22:12:24.803Z,33.53
2018-01-13T22:15:00.104Z,28.60
2018-01-13T22:17:34.834Z,18.60
2018-01-13T22:20:08.777Z,22.57
2018-01-13T22:22:42.422Z,25.83
2018-01-13T22:25:16.960Z,23.97
2018-01-13T22:27:52.057Z,26.50
2018-01-13T22:30:25.947Z,39.67
2018-01-13T22:32:59.706Z,29.47
2018-01-13T22:35:34.156Z,30.00
2018-01-13T22:38:09.541Z,26.50
2018-01-13T22:40:44.086Z,33.10
2018-01-13T22:43:17.723Z,29.37
2018-01-13T22:45:52.301Z,23.83
2018-01-13T22:48:26.415Z,29.30
2018-01-13T22:51:01.097Z,29.00
2018-01-13T22:53:35.658Z,32.30
2018-01-13T22:56:10.181Z,26.93
2018-01-13T22:58:44.072Z,29.53
2018-01-13T23:01:17.732Z,29.00
2018-01-13T23:03:51.548Z,27.67
2018-01-13T23:06:25.309Z,26.33
2018-01-13T23:08:59.080Z,28.63
2018-01-13T23:11:33.637Z,26.43
2018-01-13T23:14:07.304Z,30.17
2018-01-13T23:16:41.625Z,24.10
2018-01-13T23:19:16.366Z,30.47
2018-01-13T23:21:50.192Z,23.30
2018-01-13T23:24:23.965Z,24.83
2018-01-13T23:26:57.684Z,23.70
2018-01-13T23:29:31.529Z,24.63
2018-01-13T23:32:05.168Z,26.40
2018-01-13T23:34:38.886Z,28.37
2018-01-13T23:37:12.600Z,28.17
2018-01-13T23:39:46.988Z,27.63
2018-01-13T23:42:20.891Z,30.30
2018-01-13T23:44:55.347Z,23.83
2018-01-13T23:47:30.601Z,31.30
2018-01-13T23:50:04.844Z,25.07
2018-01-13T23:52:38.913Z,25.93
2018-01-13T23:55:12.726Z,27.60
2018-01-13T23:57:46.697Z,27.90
